createdAt,value
2019-03-17T00:00:51.215Z,21.02
2019-03-17T00:01:56.905Z,20.98
2019-03-17T00:02:51.221Z,21.01
2019-03-17T00:03:51.242Z,20.98
2019-03-17T00:04:51.233Z,20.98
2019-03-17T00:05:51.238Z,20.89
2019-03-17T00:06:51.240Z,21.06
2019-03-17T00:07:51.249Z,21.01
2019-03-17T00:08:51.251Z,20.96
2019-03-17T00:09:51.255Z,21.02
2019-03-17T00:10:52.618Z,21.02
2019-03-17T00:11:51.379Z,20.98
2019-03-17T00:12:51.269Z,21.02
2019-03-17T00:13:51.275Z,21.02
2019-03-17T00:15:04.282Z,20.95
2019-03-17T00:15:51.285Z,21.05
2019-03-17T00:16:51.290Z,21.02
2019-03-17T00:17:51.301Z,20.99
2019-03-17T00:18:51.335Z,20.98
2019-03-17T00:19:51.310Z,20.99
2019-03-17T00:20:51.309Z,20.95
2019-03-17T00:21:51.314Z,20.93
2019-03-17T00:22:51.318Z,21.04
2019-03-17T00:23:51.323Z,20.87
2019-03-17T00:24:51.327Z,20.98
2019-03-17T00:25:51.335Z,21.05
2019-03-17T00:26:51.339Z,20.98
2019-03-17T00:27:51.341Z,20.99
2019-03-17T00:28:51.346Z,21.06
2019-03-17T00:29:51.353Z,20.99
2019-03-17T00:30:51.361Z,21.02
2019-03-17T00:31:51.361Z,21.04
2019-03-17T00:32:51.368Z,20.99
2019-03-17T00:33:51.374Z,21.02
2019-03-17T00:34:51.375Z,20.98
2019-03-17T00:35:51.381Z,20.91
2019-03-17T00:36:51.499Z,21.02
2019-03-17T00:37:51.390Z,20.87
2019-03-17T00:38:51.395Z,21.02
2019-03-17T00:39:51.401Z,21.05
2019-03-17T00:40:51.406Z,20.95
2019-03-17T00:41:51.410Z,20.98
2019-03-17T00:42:51.414Z,21.02
2019-03-17T00:43:51.420Z,21.02
2019-03-17T00:44:51.433Z,21.02
2019-03-17T00:45:51.431Z,21.02
2019-03-17T00:46:51.435Z,20.87
2019-03-17T00:47:51.439Z,20.91
2019-03-17T00:48:51.444Z,21.02
2019-03-17T00:49:51.448Z,20.98
2019-03-17T00:50:51.452Z,21.04
2019-03-17T00:51:51.461Z,20.96
2019-03-17T00:52:51.463Z,20.99
2019-03-17T00:53:51.470Z,21.01
2019-03-17T00:54:51.472Z,21.02
2019-03-17T00:55:51.477Z,20.96
2019-03-17T00:56:51.482Z,20.98
2019-03-17T00:57:51.487Z,20.95
2019-03-17T00:58:51.522Z,21.02
2019-03-17T00:59:51.498Z,21.02
2019-03-17T01:00:51.502Z,21.01
2019-03-17T01:01:51.506Z,20.96
2019-03-17T01:02:51.510Z,20.96
2019-03-17T01:03:51.517Z,21.05
2019-03-17T01:04:56.162Z,21.05
2019-03-17T01:05:51.527Z,21.06
2019-03-17T01:06:51.529Z,21.01
2019-03-17T01:07:51.536Z,21.01
2019-03-17T01:08:51.541Z,21.04
2019-03-17T01:09:51.544Z,20.95
2019-03-17T01:10:51.549Z,21.08
2019-03-17T01:11:51.554Z,20.89
2019-03-17T01:12:51.559Z,21.01
2019-03-17T01:13:51.563Z,21.01
2019-03-17T01:14:51.567Z,21.04
2019-03-17T01:15:51.574Z,21.01
2019-03-17T01:16:51.578Z,20.89
2019-03-17T01:17:51.582Z,21.04
2019-03-17T01:18:51.587Z,20.98
2019-03-17T01:19:51.805Z,20.98
2019-03-17T01:20:51.599Z,20.93
2019-03-17T01:21:51.602Z,20.93
2019-03-17T01:22:51.609Z,21.05
2019-03-17T01:23:51.616Z,21.05
2019-03-17T01:24:51.615Z,20.98
2019-03-17T01:25:51.621Z,21.02
2019-03-17T01:26:51.625Z,20.90
2019-03-17T01:27:51.630Z,21.02
2019-03-17T01:28:51.638Z,20.99
2019-03-17T01:29:51.640Z,20.89
2019-03-17T01:30:51.647Z,20.99
2019-03-17T01:31:51.651Z,20.89
2019-03-17T01:32:51.655Z,20.96
2019-03-17T01:33:51.662Z,21.04
2019-03-17T01:34:51.664Z,21.04
2019-03-17T01:35:51.669Z,21.01
2019-03-17T01:36:51.676Z,21.02
2019-03-17T01:37:51.679Z,21.01
2019-03-17T01:38:51.682Z,20.96
2019-03-17T01:39:51.688Z,20.99
2019-03-17T01:40:51.694Z,21.02
2019-03-17T01:41:51.698Z,20.93
2019-03-17T01:42:51.704Z,21.01
2019-03-17T01:43:51.706Z,20.99
2019-03-17T01:44:51.712Z,21.02
2019-03-17T01:45:51.717Z,21.01
2019-03-17T01:46:51.721Z,21.01
2019-03-17T01:47:51.727Z,21.02
2019-03-17T01:48:51.732Z,20.90
2019-03-17T01:49:51.735Z,21.02
2019-03-17T01:50:51.741Z,20.96
2019-03-17T01:51:51.745Z,20.99
2019-03-17T01:52:51.751Z,21.02
2019-03-17T01:53:51.757Z,21.06
2019-03-17T01:54:51.760Z,21.04
2019-03-17T01:55:51.765Z,20.98
2019-03-17T01:56:51.770Z,20.99
2019-03-17T01:57:51.776Z,21.02
2019-03-17T01:58:51.779Z,21.08
2019-03-17T01:59:51.783Z,20.95
2019-03-17T02:00:51.789Z,21.01
2019-03-17T02:01:51.794Z,21.02
2019-03-17T02:02:51.800Z,21.05
2019-03-17T02:03:51.803Z,20.90
2019-03-17T02:04:51.809Z,21.05
2019-03-17T02:05:51.812Z,20.90
2019-03-17T02:06:51.817Z,21.02
2019-03-17T02:07:51.823Z,20.93
2019-03-17T02:08:51.827Z,20.87
2019-03-17T02:09:51.838Z,20.96
2019-03-17T02:10:51.835Z,21.04
2019-03-17T02:11:51.840Z,20.99
2019-03-17T02:12:51.847Z,20.99
2019-03-17T02:13:51.851Z,20.99
2019-03-17T02:14:51.857Z,20.95
2019-03-17T02:15:51.860Z,21.01
2019-03-17T02:16:51.866Z,20.96
2019-03-17T02:17:51.869Z,20.89
2019-03-17T02:18:51.898Z,20.87
2019-03-17T02:19:51.880Z,21.02
2019-03-17T02:20:51.885Z,20.95
2019-03-17T02:21:51.893Z,20.98
2019-03-17T02:22:51.893Z,20.93
2019-03-17T02:23:51.899Z,21.05
2019-03-17T02:24:51.912Z,21.02
2019-03-17T02:25:51.908Z,20.98
2019-03-17T02:26:51.912Z,20.95
2019-03-17T02:27:51.918Z,21.01
2019-03-17T02:28:51.928Z,21.02
2019-03-17T02:29:51.937Z,20.96
2019-03-17T02:30:51.952Z,20.93
2019-03-17T02:31:51.938Z,21.02
2019-03-17T02:32:51.946Z,21.02
2019-03-17T02:33:51.947Z,20.87
2019-03-17T02:34:52.036Z,20.96
2019-03-17T02:35:51.958Z,21.04
2019-03-17T02:36:51.961Z,20.93
2019-03-17T02:37:51.966Z,21.02
2019-03-17T02:38:51.971Z,20.93
2019-03-17T02:39:51.976Z,21.06
2019-03-17T02:40:51.982Z,20.98
2019-03-17T02:41:51.985Z,20.89
2019-03-17T02:42:51.994Z,20.95
2019-03-17T02:43:52.003Z,21.05
2019-03-17T02:44:51.998Z,20.90
2019-03-17T02:45:52.004Z,21.04
2019-03-17T02:46:52.008Z,20.95
2019-03-17T02:47:52.024Z,21.01
2019-03-17T02:48:52.020Z,20.87
2019-03-17T02:49:52.028Z,20.89
2019-03-17T02:50:52.029Z,20.99
2019-03-17T02:51:52.032Z,21.02
2019-03-17T02:52:52.039Z,21.01
2019-03-17T02:53:52.044Z,21.04
2019-03-17T02:54:52.046Z,20.93
2019-03-17T02:55:52.054Z,21.04
2019-03-17T02:56:52.057Z,20.98
2019-03-17T02:57:52.061Z,20.93
2019-03-17T02:58:52.065Z,20.86
2019-03-17T02:59:52.071Z,20.93
2019-03-17T03:00:52.079Z,20.98
2019-03-17T03:01:52.082Z,20.95
2019-03-17T03:02:52.085Z,21.01
2019-03-17T03:03:52.098Z,20.98
2019-03-17T03:04:52.096Z,20.99
2019-03-17T03:05:55.422Z,20.95
2019-03-17T03:06:52.113Z,21.04
2019-03-17T03:07:52.110Z,20.98
2019-03-17T03:08:52.123Z,21.01
2019-03-17T03:09:52.123Z,21.02
2019-03-17T03:10:52.123Z,21.05
2019-03-17T03:11:52.131Z,20.98
2019-03-17T03:12:52.153Z,20.93
2019-03-17T03:13:52.140Z,20.98
2019-03-17T03:14:52.147Z,21.04
2019-03-17T03:15:52.157Z,20.96
2019-03-17T03:16:52.153Z,21.04
2019-03-17T03:17:52.158Z,20.91
2019-03-17T03:18:52.165Z,20.99
2019-03-17T03:19:52.171Z,20.95
2019-03-17T03:20:52.176Z,21.02
2019-03-17T03:21:52.248Z,21.05
2019-03-17T03:22:52.187Z,20.98
2019-03-17T03:23:52.188Z,20.98
2019-03-17T03:24:52.200Z,20.95
2019-03-17T03:25:52.203Z,20.91
2019-03-17T03:26:52.201Z,21.04
2019-03-17T03:27:52.211Z,21.01
2019-03-17T03:28:52.210Z,21.04
2019-03-17T03:29:52.216Z,20.98
2019-03-17T03:30:52.272Z,20.90
2019-03-17T03:31:52.224Z,20.98
2019-03-17T03:32:52.229Z,21.02
2019-03-17T03:33:52.246Z,21.02
2019-03-17T03:34:52.247Z,21.01
2019-03-17T03:35:52.246Z,21.01
2019-03-17T03:36:52.254Z,21.02
2019-03-17T03:37:52.254Z,21.05
2019-03-17T03:38:52.265Z,20.84
2019-03-17T03:39:52.275Z,21.04
2019-03-17T03:40:52.322Z,21.02
2019-03-17T03:41:52.287Z,20.98
2019-03-17T03:42:52.281Z,20.99
2019-03-17T03:43:52.282Z,21.04
2019-03-17T03:44:52.294Z,20.91
2019-03-17T03:45:52.291Z,21.02
2019-03-17T03:46:52.375Z,20.95
2019-03-17T03:47:52.300Z,20.93
2019-03-17T03:48:52.315Z,20.93
2019-03-17T03:49:52.312Z,20.93
2019-03-17T03:50:52.332Z,21.04
2019-03-17T03:51:52.321Z,21.04
2019-03-17T03:52:52.330Z,21.01
2019-03-17T03:53:52.330Z,20.93
2019-03-17T03:54:52.333Z,20.90
2019-03-17T03:55:52.352Z,20.90
2019-03-17T03:56:52.345Z,20.93
2019-03-17T03:57:52.350Z,20.93
2019-03-17T03:58:52.354Z,20.91
2019-03-17T03:59:52.360Z,21.02
2019-03-17T04:00:52.364Z,21.01
2019-03-17T04:01:52.369Z,20.96
2019-03-17T04:02:52.374Z,20.86
2019-03-17T04:03:52.380Z,20.91
2019-03-17T04:04:52.383Z,20.91
2019-03-17T04:05:52.388Z,20.86
2019-03-17T04:06:52.391Z,20.90
2019-03-17T04:07:52.399Z,20.98
2019-03-17T04:08:52.410Z,20.99
2019-03-17T04:09:52.407Z,20.89
2019-03-17T04:10:52.450Z,20.98
2019-03-17T04:11:52.559Z,20.96
2019-03-17T04:12:52.421Z,20.96
2019-03-17T04:13:52.425Z,20.96
2019-03-17T04:14:52.430Z,20.93
2019-03-17T04:15:52.444Z,20.90
2019-03-17T04:16:52.464Z,20.99
2019-03-17T04:17:52.444Z,20.86
2019-03-17T04:18:52.449Z,20.91
2019-03-17T04:19:52.453Z,20.90
2019-03-17T04:20:52.457Z,20.86
2019-03-17T04:21:52.464Z,20.93
2019-03-17T04:22:52.470Z,20.96
2019-03-17T04:23:52.476Z,21.01
2019-03-17T04:24:52.479Z,21.02
2019-03-17T04:25:52.485Z,20.91
2019-03-17T04:26:52.486Z,20.91
2019-03-17T04:27:52.493Z,20.95
2019-03-17T04:28:52.506Z,21.01
2019-03-17T04:29:52.508Z,20.87
2019-03-17T04:30:52.505Z,21.01
2019-03-17T04:31:52.510Z,20.90
2019-03-17T04:32:52.518Z,20.96
2019-03-17T04:33:52.522Z,20.86
2019-03-17T04:34:52.525Z,20.99
2019-03-17T04:35:52.529Z,20.98
2019-03-17T04:36:52.543Z,20.99
2019-03-17T04:37:52.547Z,20.99
2019-03-17T04:38:52.583Z,20.87
2019-03-17T04:39:52.549Z,21.01
2019-03-17T04:40:52.557Z,20.96
2019-03-17T04:41:52.557Z,20.96
2019-03-17T04:42:52.641Z,21.02
2019-03-17T04:43:52.569Z,20.90
2019-03-17T04:44:52.573Z,20.91
2019-03-17T04:45:52.576Z,21.01
2019-03-17T04:46:52.582Z,20.91
2019-03-17T04:47:52.639Z,20.86
2019-03-17T04:48:52.689Z,20.86
2019-03-17T04:49:52.599Z,20.99
2019-03-17T04:50:52.602Z,20.96
2019-03-17T04:51:52.606Z,20.99
2019-03-17T04:52:52.611Z,20.89
2019-03-17T04:53:52.616Z,20.96
2019-03-17T04:54:52.620Z,20.89
2019-03-17T04:55:52.625Z,20.91
2019-03-17T04:56:52.631Z,21.05
2019-03-17T04:57:52.635Z,21.04
2019-03-17T04:58:52.645Z,20.93
2019-03-17T04:59:52.644Z,20.99
2019-03-17T05:00:52.649Z,20.93
2019-03-17T05:01:52.655Z,20.91
2019-03-17T05:02:52.658Z,21.01
2019-03-17T05:03:52.664Z,20.96
2019-03-17T05:04:52.670Z,21.06
2019-03-17T05:05:52.673Z,20.91
2019-03-17T05:06:53.238Z,20.90
2019-03-17T05:07:52.685Z,20.93
2019-03-17T05:08:52.687Z,20.91
2019-03-17T05:09:52.692Z,21.04
2019-03-17T05:10:52.697Z,20.91
2019-03-17T05:11:52.701Z,20.95
2019-03-17T05:12:52.705Z,20.96
2019-03-17T05:13:52.710Z,20.96
2019-03-17T05:14:52.715Z,20.98
2019-03-17T05:15:52.720Z,21.04
2019-03-17T05:16:52.730Z,20.98
2019-03-17T05:17:52.730Z,20.91
2019-03-17T05:18:52.736Z,21.04
2019-03-17T05:19:52.740Z,20.96
2019-03-17T05:20:52.747Z,20.99
2019-03-17T05:21:52.752Z,21.01
2019-03-17T05:22:52.754Z,20.99
2019-03-17T05:23:52.760Z,20.96
2019-03-17T05:24:52.763Z,21.02
2019-03-17T05:25:52.770Z,21.01
2019-03-17T05:26:52.773Z,20.95
2019-03-17T05:27:52.776Z,20.95
2019-03-17T05:28:52.782Z,20.87
2019-03-17T05:29:52.788Z,21.02
2019-03-17T05:30:52.792Z,20.99
2019-03-17T05:31:52.799Z,21.08
2019-03-17T05:32:52.804Z,20.99
2019-03-17T05:33:52.809Z,21.02
2019-03-17T05:34:52.811Z,21.02
2019-03-17T05:35:52.815Z,21.02
2019-03-17T05:37:05.059Z,21.05
2019-03-17T05:37:52.825Z,21.06
2019-03-17T05:38:52.832Z,21.01
2019-03-17T05:39:52.834Z,21.04
2019-03-17T05:40:52.840Z,20.98
2019-03-17T05:41:52.843Z,21.01
2019-03-17T05:42:52.847Z,20.96
2019-03-17T05:43:52.852Z,20.89
2019-03-17T05:44:52.863Z,21.01
2019-03-17T05:45:52.864Z,20.99
2019-03-17T05:46:52.867Z,21.04
2019-03-17T05:47:52.871Z,20.89
2019-03-17T05:48:52.877Z,20.98
2019-03-17T05:49:52.882Z,20.99
2019-03-17T05:50:52.887Z,20.99
2019-03-17T05:51:52.893Z,20.93
2019-03-17T05:52:52.900Z,21.06
2019-03-17T05:53:52.901Z,21.01
2019-03-17T05:54:52.906Z,20.96
2019-03-17T05:55:52.935Z,20.96
2019-03-17T05:56:52.916Z,20.99
2019-03-17T05:57:52.923Z,20.95
2019-03-17T05:58:52.923Z,20.95
2019-03-17T05:59:52.931Z,21.04
2019-03-17T06:00:52.938Z,20.99
2019-03-17T06:01:52.948Z,20.96
2019-03-17T06:02:52.946Z,21.01
2019-03-17T06:03:52.967Z,20.91
2019-03-17T06:04:52.953Z,21.02
2019-03-17T06:05:52.959Z,21.05
2019-03-17T06:06:52.963Z,21.02
2019-03-17T06:07:52.971Z,21.02
2019-03-17T06:08:52.972Z,21.01
2019-03-17T06:09:52.981Z,21.05
2019-03-17T06:10:52.981Z,21.05
2019-03-17T06:11:52.985Z,20.91
2019-03-17T06:12:52.993Z,21.05
2019-03-17T06:13:52.997Z,20.90
2019-03-17T06:14:53.002Z,21.05
2019-03-17T06:15:53.006Z,20.99
2019-03-17T06:16:53.011Z,21.05
2019-03-17T06:17:53.016Z,20.87
2019-03-17T06:18:53.019Z,20.96
2019-03-17T06:19:53.026Z,20.99
2019-03-17T06:20:53.029Z,20.91
2019-03-17T06:21:53.035Z,21.05
2019-03-17T06:22:53.038Z,21.02
2019-03-17T06:23:53.044Z,20.99
2019-03-17T06:24:53.050Z,21.01
2019-03-17T06:25:53.055Z,20.93
2019-03-17T06:26:53.057Z,20.99
2019-03-17T06:27:53.063Z,21.02
2019-03-17T06:28:53.066Z,21.02
2019-03-17T06:29:53.077Z,20.99
2019-03-17T06:30:53.076Z,20.91
2019-03-17T06:31:53.081Z,20.99
2019-03-17T06:32:53.088Z,21.01
2019-03-17T06:33:53.093Z,20.96
2019-03-17T06:34:53.094Z,21.04
2019-03-17T06:35:53.099Z,20.96
2019-03-17T06:36:53.107Z,20.93
2019-03-17T06:37:53.112Z,21.02
2019-03-17T06:38:53.114Z,20.99
2019-03-17T06:39:53.119Z,20.99
2019-03-17T06:40:53.126Z,21.01
2019-03-17T06:41:53.130Z,21.01
2019-03-17T06:42:53.156Z,20.96
2019-03-17T06:43:53.137Z,21.02
2019-03-17T06:44:53.144Z,21.02
2019-03-17T06:45:53.149Z,20.93
2019-03-17T06:46:53.153Z,20.96
2019-03-17T06:47:53.159Z,20.96
2019-03-17T06:48:53.177Z,21.01
2019-03-17T06:49:53.168Z,21.04
2019-03-17T06:50:53.171Z,20.98
2019-03-17T06:51:53.177Z,20.98
2019-03-17T06:52:53.595Z,20.96
2019-03-17T06:53:56.684Z,20.99
2019-03-17T06:54:53.190Z,20.93
2019-03-17T06:55:53.196Z,20.96
2019-03-17T06:56:53.200Z,21.02
2019-03-17T06:57:53.209Z,21.04
2019-03-17T06:58:53.210Z,21.02
2019-03-17T06:59:53.216Z,20.99
2019-03-17T07:00:53.220Z,21.05
2019-03-17T07:01:53.227Z,20.98
2019-03-17T07:02:53.228Z,20.99
2019-03-17T07:03:53.233Z,20.95
2019-03-17T07:04:54.142Z,20.93
2019-03-17T07:05:53.243Z,21.02
2019-03-17T07:06:53.248Z,20.98
2019-03-17T07:07:53.253Z,20.98
2019-03-17T07:08:53.258Z,20.96
2019-03-17T07:09:53.263Z,20.96
2019-03-17T07:10:53.268Z,20.98
2019-03-17T07:11:53.274Z,21.01
2019-03-17T07:12:53.277Z,20.95
2019-03-17T07:13:53.282Z,21.06
2019-03-17T07:14:53.287Z,20.99
2019-03-17T07:15:53.292Z,21.06
2019-03-17T07:16:53.298Z,20.99
2019-03-17T07:17:53.302Z,21.02
2019-03-17T07:18:53.305Z,21.01
2019-03-17T07:19:53.313Z,20.98
2019-03-17T07:20:53.316Z,21.04
2019-03-17T07:21:53.320Z,21.01
2019-03-17T07:22:53.326Z,21.08
2019-03-17T07:23:53.330Z,21.01
2019-03-17T07:24:53.335Z,21.01
2019-03-17T07:25:53.346Z,21.05
2019-03-17T07:26:53.344Z,20.98
2019-03-17T07:27:53.350Z,21.02
2019-03-17T07:28:53.354Z,20.96
2019-03-17T07:29:53.358Z,20.98
2019-03-17T07:30:53.363Z,20.98
2019-03-17T07:31:53.368Z,20.98
2019-03-17T07:32:53.372Z,20.98
2019-03-17T07:33:53.377Z,21.02
2019-03-17T07:34:53.380Z,20.98
2019-03-17T07:35:53.387Z,20.99
2019-03-17T07:36:53.392Z,20.98
2019-03-17T07:37:56.978Z,20.98
2019-03-17T07:38:53.402Z,20.98
2019-03-17T07:39:53.405Z,21.02
2019-03-17T07:40:53.412Z,21.01
2019-03-17T07:41:53.418Z,21.08
2019-03-17T07:42:53.421Z,21.04
2019-03-17T07:43:53.424Z,20.99
2019-03-17T07:44:53.431Z,21.02
2019-03-17T07:45:53.435Z,20.98
2019-03-17T07:46:53.453Z,20.95
2019-03-17T07:47:53.444Z,20.95
2019-03-17T07:48:53.449Z,20.99
2019-03-17T07:49:53.453Z,21.09
2019-03-17T07:50:53.460Z,21.06
2019-03-17T07:51:53.463Z,20.98
2019-03-17T07:52:53.467Z,21.01
2019-03-17T07:53:53.479Z,20.98
2019-03-17T07:54:53.477Z,21.06
2019-03-17T07:55:53.482Z,21.05
2019-03-17T07:56:53.489Z,21.02
2019-03-17T07:57:53.493Z,20.93
2019-03-17T07:58:53.499Z,21.05
2019-03-17T07:59:53.503Z,21.02
2019-03-17T08:00:53.508Z,21.11
2019-03-17T08:01:53.512Z,21.06
2019-03-17T08:02:53.520Z,21.09
2019-03-17T08:03:53.521Z,21.02
2019-03-17T08:04:53.526Z,21.02
2019-03-17T08:05:53.532Z,20.99
2019-03-17T08:06:53.542Z,20.98
2019-03-17T08:07:53.538Z,21.04
2019-03-17T08:08:53.545Z,21.04
2019-03-17T08:09:53.550Z,21.06
2019-03-17T08:10:53.557Z,21.09
2019-03-17T08:11:53.558Z,21.01
2019-03-17T08:12:53.564Z,21.06
2019-03-17T08:13:53.569Z,21.04
2019-03-17T08:14:53.650Z,21.08
2019-03-17T08:15:53.577Z,21.08
2019-03-17T08:16:53.583Z,21.05
2019-03-17T08:17:53.588Z,21.05
2019-03-17T08:18:53.591Z,21.04
2019-03-17T08:19:53.598Z,21.05
2019-03-17T08:20:53.602Z,21.14
2019-03-17T08:21:53.608Z,21.13
2019-03-17T08:22:53.882Z,21.14
2019-03-17T08:23:53.616Z,21.16
2019-03-17T08:24:53.622Z,21.04
2019-03-17T08:25:53.626Z,21.09
2019-03-17T08:26:53.630Z,21.06
2019-03-17T08:27:53.636Z,21.06
2019-03-17T08:28:53.641Z,21.04
2019-03-17T08:29:53.648Z,21.06
2019-03-17T08:30:53.807Z,21.13
2019-03-17T08:31:53.655Z,21.01
2019-03-17T08:32:53.660Z,21.08
2019-03-17T08:33:53.664Z,21.04
2019-03-17T08:34:53.673Z,21.02
2019-03-17T08:35:53.677Z,21.08
2019-03-17T08:36:53.681Z,21.02
2019-03-17T08:37:53.684Z,21.06
2019-03-17T08:38:53.688Z,21.04
2019-03-17T08:39:53.693Z,21.05
2019-03-17T08:40:53.698Z,21.08
2019-03-17T08:41:53.706Z,21.04
2019-03-17T08:42:53.712Z,21.06
2019-03-17T08:43:54.708Z,21.08
2019-03-17T08:44:53.717Z,21.05
2019-03-17T08:45:53.722Z,21.13
2019-03-17T08:46:53.726Z,21.13
2019-03-17T08:47:58.351Z,21.05
2019-03-17T08:48:53.737Z,21.06
2019-03-17T08:49:53.742Z,21.05
2019-03-17T08:50:53.747Z,21.09
2019-03-17T08:51:53.751Z,21.06
2019-03-17T08:52:53.757Z,21.08
2019-03-17T08:53:53.761Z,21.05
2019-03-17T08:54:53.767Z,21.08
2019-03-17T08:55:53.769Z,21.09
2019-03-17T08:56:53.777Z,21.11
2019-03-17T08:57:53.779Z,21.04
2019-03-17T08:58:53.783Z,21.02
2019-03-17T08:59:53.787Z,21.08
2019-03-17T09:00:53.795Z,21.16
2019-03-17T09:01:53.800Z,21.13
2019-03-17T09:02:53.807Z,21.06
2019-03-17T09:03:53.808Z,21.05
2019-03-17T09:04:53.813Z,21.17
2019-03-17T09:05:53.818Z,21.09
2019-03-17T09:06:53.821Z,21.13
2019-03-17T09:07:53.832Z,21.06
2019-03-17T09:08:53.833Z,21.14
2019-03-17T09:09:53.837Z,21.05
2019-03-17T09:10:53.844Z,21.09
2019-03-17T09:11:53.849Z,21.11
2019-03-17T09:12:53.940Z,21.08
2019-03-17T09:13:53.858Z,21.09
2019-03-17T09:14:53.859Z,21.11
2019-03-17T09:15:53.888Z,21.14
2019-03-17T09:16:53.871Z,21.09
2019-03-17T09:17:53.875Z,21.14
2019-03-17T09:18:53.882Z,21.16
2019-03-17T09:19:53.885Z,21.14
2019-03-17T09:20:53.889Z,21.13
2019-03-17T09:21:53.896Z,21.17
2019-03-17T09:22:53.950Z,21.19
2019-03-17T09:23:53.904Z,21.05
2019-03-17T09:24:53.909Z,21.13
2019-03-17T09:25:53.915Z,21.14
2019-03-17T09:26:53.919Z,21.16
2019-03-17T09:27:53.923Z,21.16
2019-03-17T09:28:53.930Z,21.11
2019-03-17T09:29:53.941Z,21.14
2019-03-17T09:30:53.938Z,21.17
2019-03-17T09:31:53.942Z,21.11
2019-03-17T09:32:53.950Z,21.11
2019-03-17T09:33:53.956Z,21.13
2019-03-17T09:34:53.958Z,21.14
2019-03-17T09:35:53.963Z,21.16
2019-03-17T09:36:53.966Z,21.11
2019-03-17T09:37:53.971Z,21.08
2019-03-17T09:38:53.976Z,21.11
2019-03-17T09:39:53.981Z,21.11
2019-03-17T09:40:53.987Z,21.14
2019-03-17T09:41:53.991Z,21.16
2019-03-17T09:42:53.996Z,21.09
2019-03-17T09:43:54.002Z,21.14
2019-03-17T09:44:54.007Z,21.11
2019-03-17T09:45:54.011Z,21.14
2019-03-17T09:46:54.017Z,21.16
2019-03-17T09:47:54.020Z,21.17
2019-03-17T09:48:54.027Z,21.17
2019-03-17T09:49:54.029Z,21.13
2019-03-17T09:50:54.035Z,21.17
2019-03-17T09:51:54.040Z,21.09
2019-03-17T09:52:54.046Z,21.19
2019-03-17T09:53:54.050Z,21.09
2019-03-17T09:54:54.055Z,21.16
2019-03-17T09:55:54.059Z,21.14
2019-03-17T09:56:54.064Z,21.11
2019-03-17T09:57:54.074Z,21.17
2019-03-17T09:58:54.073Z,21.17
2019-03-17T09:59:54.077Z,21.11
2019-03-17T10:00:54.082Z,21.16
2019-03-17T10:01:54.088Z,21.17
2019-03-17T10:02:54.092Z,21.13
2019-03-17T10:03:54.349Z,21.11
2019-03-17T10:04:54.103Z,21.17
2019-03-17T10:05:54.110Z,21.11
2019-03-17T10:06:54.113Z,21.16
2019-03-17T10:07:54.118Z,21.14
2019-03-17T10:08:59.856Z,21.20
2019-03-17T10:09:54.134Z,21.13
2019-03-17T10:10:54.131Z,21.14
2019-03-17T10:11:54.136Z,21.11
2019-03-17T10:12:54.142Z,21.19
2019-03-17T10:13:54.145Z,21.13
2019-03-17T10:14:54.150Z,21.14
2019-03-17T10:15:54.155Z,21.20
2019-03-17T10:16:54.180Z,21.09
2019-03-17T10:17:54.171Z,21.21
2019-03-17T10:18:54.169Z,21.16
2019-03-17T10:19:54.178Z,21.09
2019-03-17T10:20:54.180Z,21.19
2019-03-17T10:21:54.188Z,21.13
2019-03-17T10:22:54.189Z,21.19
2019-03-17T10:23:54.194Z,21.11
2019-03-17T10:24:54.199Z,21.14
2019-03-17T10:25:54.208Z,21.11
2019-03-17T10:26:54.209Z,21.14
2019-03-17T10:27:54.212Z,21.19
2019-03-17T10:28:54.223Z,21.19
2019-03-17T10:29:54.223Z,21.14
2019-03-17T10:30:54.228Z,21.09
2019-03-17T10:31:54.233Z,21.20
2019-03-17T10:32:54.239Z,21.11
2019-03-17T10:33:54.248Z,21.19
2019-03-17T10:34:54.246Z,21.14
2019-03-17T10:35:54.254Z,21.16
2019-03-17T10:36:54.257Z,21.14
2019-03-17T10:37:54.264Z,21.16
2019-03-17T10:38:54.436Z,21.13
2019-03-17T10:39:54.271Z,21.17
2019-03-17T10:40:54.277Z,21.19
2019-03-17T10:41:54.283Z,21.23
2019-03-17T10:42:54.286Z,21.14
2019-03-17T10:43:54.290Z,21.13
2019-03-17T10:44:54.297Z,21.19
2019-03-17T10:45:54.303Z,21.09
2019-03-17T10:46:54.306Z,21.08
2019-03-17T10:47:54.658Z,21.14
2019-03-17T10:48:54.314Z,21.08
2019-03-17T10:49:54.320Z,21.11
2019-03-17T10:50:54.326Z,21.16
2019-03-17T10:51:54.373Z,21.11
2019-03-17T10:52:54.348Z,21.13
2019-03-17T10:53:54.340Z,21.17
2019-03-17T10:54:54.343Z,21.13
2019-03-17T10:55:54.349Z,21.21
2019-03-17T10:56:54.354Z,21.14
2019-03-17T10:57:54.358Z,21.19
2019-03-17T10:58:54.364Z,21.19
2019-03-17T10:59:54.370Z,21.17
2019-03-17T11:00:54.427Z,21.16
2019-03-17T11:01:54.378Z,21.19
2019-03-17T11:02:54.383Z,21.17
2019-03-17T11:03:54.388Z,21.17
2019-03-17T11:04:54.396Z,21.20
2019-03-17T11:05:54.593Z,21.09
2019-03-17T11:06:54.405Z,21.11
2019-03-17T11:07:54.408Z,21.17
2019-03-17T11:08:54.417Z,21.20
2019-03-17T11:09:54.423Z,21.13
2019-03-17T11:10:54.422Z,21.19
2019-03-17T11:11:54.427Z,21.13
2019-03-17T11:12:54.437Z,21.19
2019-03-17T11:13:54.438Z,21.16
2019-03-17T11:14:54.445Z,21.20
2019-03-17T11:15:54.450Z,21.13
2019-03-17T11:16:54.451Z,21.13
2019-03-17T11:17:54.456Z,21.11
2019-03-17T11:18:54.461Z,21.09
2019-03-17T11:19:54.468Z,21.14
2019-03-17T11:20:54.475Z,21.09
2019-03-17T11:21:54.476Z,21.11
2019-03-17T11:22:54.480Z,21.11
2019-03-17T11:23:54.488Z,21.16
2019-03-17T11:24:54.490Z,21.16
2019-03-17T11:25:54.494Z,21.11
2019-03-17T11:26:55.742Z,21.14
2019-03-17T11:27:54.506Z,21.06
2019-03-17T11:28:54.511Z,21.14
2019-03-17T11:29:54.515Z,21.14
2019-03-17T11:30:54.519Z,21.16
2019-03-17T11:31:54.524Z,21.17
2019-03-17T11:32:54.529Z,21.11
2019-03-17T11:33:54.534Z,21.05
2019-03-17T11:34:54.539Z,21.13
2019-03-17T11:35:54.589Z,21.09
2019-03-17T11:36:54.548Z,21.17
2019-03-17T11:37:54.553Z,21.06
2019-03-17T11:38:54.556Z,21.11
2019-03-17T11:39:54.563Z,21.11
2019-03-17T11:40:54.568Z,21.17
2019-03-17T11:41:54.574Z,21.09
2019-03-17T11:42:54.577Z,21.13
2019-03-17T11:43:54.590Z,21.16
2019-03-17T11:44:54.588Z,21.14
2019-03-17T11:45:54.592Z,21.19
2019-03-17T11:46:54.596Z,21.16
2019-03-17T11:47:54.602Z,21.19
2019-03-17T11:48:54.607Z,21.11
2019-03-17T11:49:54.617Z,21.11
2019-03-17T11:50:54.618Z,21.11
2019-03-17T11:51:54.621Z,21.17
2019-03-17T11:52:54.627Z,21.14
2019-03-17T11:53:54.691Z,21.11
2019-03-17T11:54:54.635Z,21.13
2019-03-17T11:55:54.642Z,21.11
2019-03-17T11:56:54.646Z,21.14
2019-03-17T11:57:54.651Z,21.14
2019-03-17T11:58:54.659Z,21.13
2019-03-17T11:59:54.660Z,21.16
2019-03-17T12:00:54.665Z,21.14
2019-03-17T12:01:54.670Z,21.11
2019-03-17T12:02:54.674Z,21.14
2019-03-17T12:03:54.679Z,21.11
2019-03-17T12:04:54.685Z,21.14
2019-03-17T12:05:54.688Z,21.20
2019-03-17T12:06:54.692Z,21.14
2019-03-17T12:07:54.698Z,21.17
2019-03-17T12:08:54.703Z,21.17
2019-03-17T12:09:54.712Z,21.17
2019-03-17T12:10:54.711Z,21.14
2019-03-17T12:11:54.718Z,21.17
2019-03-17T12:12:54.724Z,21.19
2019-03-17T12:13:54.729Z,21.13
2019-03-17T12:14:54.732Z,21.14
2019-03-17T12:15:54.737Z,21.09
2019-03-17T12:16:54.744Z,21.13
2019-03-17T12:17:54.748Z,21.14
2019-03-17T12:18:54.752Z,21.17
2019-03-17T12:19:54.765Z,21.09
2019-03-17T12:20:54.761Z,21.17
2019-03-17T12:21:54.770Z,21.09
2019-03-17T12:22:54.772Z,21.13
2019-03-17T12:23:54.776Z,21.16
2019-03-17T12:24:54.856Z,21.11
2019-03-17T12:25:54.788Z,21.17
2019-03-17T12:26:54.789Z,21.19
2019-03-17T12:27:54.796Z,21.11
2019-03-17T12:28:54.802Z,21.11
2019-03-17T12:29:54.805Z,21.19
2019-03-17T12:30:54.810Z,21.09
2019-03-17T12:31:54.815Z,21.11
2019-03-17T12:32:54.821Z,21.16
2019-03-17T12:33:54.825Z,21.20
2019-03-17T12:34:54.832Z,21.17
2019-03-17T12:35:54.834Z,21.14
2019-03-17T12:36:54.839Z,21.17
2019-03-17T12:37:54.849Z,21.11
2019-03-17T12:38:54.850Z,21.16
2019-03-17T12:40:02.391Z,21.09
2019-03-17T12:40:54.925Z,21.14
2019-03-17T12:41:54.864Z,21.09
2019-03-17T12:42:54.868Z,21.09
2019-03-17T12:43:54.873Z,21.11
2019-03-17T12:44:54.879Z,21.16
2019-03-17T12:45:54.884Z,21.11
2019-03-17T12:46:54.887Z,21.11
2019-03-17T12:47:54.892Z,21.16
2019-03-17T12:48:54.898Z,21.14
2019-03-17T12:49:54.905Z,21.14
2019-03-17T12:50:54.910Z,21.17
2019-03-17T12:51:54.914Z,21.11
2019-03-17T12:52:54.916Z,21.06